sensor_id;sensor_type;location;lat;lon;timestamp;temperature;humidity
66568;DHT22;53422;49.296;6.900;2023-04-28T00:00:53;13.20;99.90
66568;DHT22;53422;49.296;6.900;2023-04-28T00:03:18;13.10;99.90
66568;DHT22;53422;49.296;6.900;2023-04-28T00:05:44;13.20;99.90
66568;DHT22;53422;49.296;6.900;2023-04-28T00:08:11;13.10;99.90
66568;DHT22;53422;49.296;6.900;2023-04-28T00:10:36;13.10;99.90
66568;DHT22;53422;49.296;6.900;2023-04-28T00:13:02;13.10;99.90
66568;DHT22;53422;49.296;6.900;2023-04-28T00:15:28;13.10;99.90
66568;DHT22;53422;49.296;6.900;2023-04-28T00:17:53;13.10;99.90
66568;DHT22;53422;49.296;6.900;2023-04-28T00:20:19;13.10;99.90
66568;DHT22;53422;49.296;6.900;2023-04-28T00:22:45;13.10;99.90
66568;DHT22;53422;49.296;6.900;2023-04-28T00:25:11;13.10;99.90
66568;DHT22;53422;49.296;6.900;2023-04-28T00:27:37;13.10;99.90
66568;DHT22;53422;49.296;6.900;2023-04-28T00:30:03;13.10;99.90
66568;DHT22;53422;49.296;6.900;2023-04-28T00:32:28;13.10;99.90
66568;DHT22;53422;49.296;6.900;2023-04-28T00:34:55;13.00;99.90
66568;DHT22;53422;49.296;6.900;2023-04-28T00:37:21;13.00;99.90
66568;DHT22;53422;49.296;6.900;2023-04-28T00:39:47;13.00;99.90
66568;DHT22;53422;49.296;6.900;2023-04-28T00:42:13;13.00;99.90
66568;DHT22;53422;49.296;6.900;2023-04-28T00:44:39;13.00;99.90
66568;DHT22;53422;49.296;6.900;2023-04-28T00:47:07;13.00;99.90
66568;DHT22;53422;49.296;6.900;2023-04-28T00:49:34;13.00;99.90
66568;DHT22;53422;49.296;6.900;2023-04-28T00:52:03;12.90;99.90
66568;DHT22;53422;49.296;6.900;2023-04-28T00:54:29;12.90;99.90
66568;DHT22;53422;49.296;6.900;2023-04-28T00:56:55;12.90;99.90
66568;DHT22;53422;49.296;6.900;2023-04-28T00:59:21;12.90;99.90
66568;DHT22;53422;49.296;6.900;2023-04-28T01:01:47;12.90;99.90
66568;DHT22;53422;49.296;6.900;2023-04-28T01:04:14;12.90;99.90
66568;DHT22;53422;49.296;6.900;2023-04-28T01:06:41;12.90;99.90
66568;DHT22;53422;49.296;6.900;2023-04-28T01:09:07;12.90;99.90
66568;DHT22;53422;49.296;6.900;2023-04-28T01:11:32;12.90;99.90
66568;DHT22;53422;49.296;6.900;2023-04-28T01:13:58;12.90;99.90
66568;DHT22;53422;49.296;6.900;2023-04-28T01:16:24;12.90;99.90
66568;DHT22;53422;49.296;6.900;2023-04-28T01:18:51;12.90;99.90
66568;DHT22;53422;49.296;6.900;2023-04-28T01:21:33;12.90;99.90
66568;DHT22;53422;49.296;6.900;2023-04-28T01:24:01;12.90;99.90
66568;DHT22;53422;49.296;6.900;2023-04-28T01:26:27;12.90;99.90
66568;DHT22;53422;49.296;6.900;2023-04-28T01:28:52;12.90;99.90
66568;DHT22;53422;49.296;6.900;2023-04-28T01:31:18;12.90;99.90
66568;DHT22;53422;49.296;6.900;2023-04-28T01:33:45;13.00;99.90
66568;DHT22;53422;49.296;6.900;2023-04-28T01:36:10;12.90;99.90
66568;DHT22;53422;49.296;6.900;2023-04-28T01:38:36;12.90;99.90
66568;DHT22;53422;49.296;6.900;2023-04-28T01:41:01;12.90;99.90
66568;DHT22;53422;49.296;6.900;2023-04-28T01:43:28;12.90;99.90
66568;DHT22;53422;49.296;6.900;2023-04-28T01:45:53;12.80;99.90
66568;DHT22;53422;49.296;6.900;2023-04-28T01:48:19;12.80;99.90
66568;DHT22;53422;49.296;6.900;2023-04-28T01:50:45;12.80;99.90
66568;DHT22;53422;49.296;6.900;2023-04-28T01:53:11;12.80;99.90
66568;DHT22;53422;49.296;6.900;2023-04-28T01:55:37;12.80;99.90
66568;DHT22;53422;49.296;6.900;2023-04-28T01:58:03;12.80;99.90
66568;DHT22;53422;49.296;6.900;2023-04-28T02:00:29;12.80;99.90
66568;DHT22;53422;49.296;6.900;2023-04-28T02:02:54;12.80;99.90
66568;DHT22;53422;49.296;6.900;2023-04-28T02:05:20;12.80;99.90
66568;DHT22;53422;49.296;6.900;2023-04-28T02:07:46;12.80;99.90
66568;DHT22;53422;49.296;6.900;2023-04-28T02:10:12;12.70;99.90
66568;DHT22;53422;49.296;6.900;2023-04-28T02:12:38;12.70;99.90
66568;DHT22;53422;49.296;6.900;2023-04-28T02:15:04;12.80;99.90
66568;DHT22;53422;49.296;6.900;2023-04-28T02:17:30;12.80;99.90
66568;DHT22;53422;49.296;6.900;2023-04-28T02:19:56;12.70;99.90
66568;DHT22;53422;49.296;6.900;2023-04-28T02:22:22;12.70;99.90
66568;DHT22;53422;49.296;6.900;2023-04-28T02:24:48;12.70;99.90
66568;DHT22;53422;49.296;6.900;2023-04-28T02:27:14;12.70;99.90
66568;DHT22;53422;49.296;6.900;2023-04-28T02:29:40;12.70;99.90
66568;DHT22;53422;49.296;6.900;2023-04-28T02:32:06;12.70;99.90
66568;DHT22;53422;49.296;6.900;2023-04-28T02:34:33;12.70;99.90
66568;DHT22;53422;49.296;6.900;2023-04-28T02:36:58;12.70;99.90
66568;DHT22;53422;49.296;6.900;2023-04-28T02:39:24;12.70;99.90
66568;DHT22;53422;49.296;6.900;2023-04-28T02:41:54;12.70;99.90
66568;DHT22;53422;49.296;6.900;2023-04-28T02:44:21;12.70;99.90
66568;DHT22;53422;49.296;6.900;2023-04-28T02:46:46;12.70;99.90
66568;DHT22;53422;49.296;6.900;2023-04-28T02:49:12;12.70;99.90
66568;DHT22;53422;49.296;6.900;2023-04-28T02:51:38;12.70;99.90
66568;DHT22;53422;49.296;6.900;2023-04-28T02:54:04;12.70;99.90
66568;DHT22;53422;49.296;6.900;2023-04-28T02:56:30;12.70;99.90
66568;DHT22;53422;49.296;6.900;2023-04-28T02:58:56;12.70;99.90
66568;DHT22;53422;49.296;6.900;2023-04-28T03:01:22;12.70;99.90
66568;DHT22;53422;49.296;6.900;2023-04-28T03:03:48;12.70;99.90
66568;DHT22;53422;49.296;6.900;2023-04-28T03:06:13;12.70;99.90
66568;DHT22;53422;49.296;6.900;2023-04-28T03:08:39;12.70;99.90
66568;DHT22;53422;49.296;6.900;2023-04-28T03:11:05;12.70;99.90
66568;DHT22;53422;49.296;6.900;2023-04-28T03:13:30;12.70;99.90
66568;DHT22;53422;49.296;6.900;2023-04-28T03:15:56;12.70;99.90
66568;DHT22;53422;49.296;6.900;2023-04-28T03:18:22;12.70;99.90
66568;DHT22;53422;49.296;6.900;2023-04-28T03:20:48;12.70;99.90
66568;DHT22;53422;49.296;6.900;2023-04-28T03:23:14;12.70;99.90
66568;DHT22;53422;49.296;6.900;2023-04-28T03:25:40;12.70;99.90
66568;DHT22;53422;49.296;6.900;2023-04-28T03:28:06;12.70;99.90
66568;DHT22;53422;49.296;6.900;2023-04-28T03:30:31;12.70;99.90
66568;DHT22;53422;49.296;6.900;2023-04-28T03:32:57;12.70;99.90
66568;DHT22;53422;49.296;6.900;2023-04-28T03:35:22;12.70;99.90
66568;DHT22;53422;49.296;6.900;2023-04-28T03:37:48;12.70;99.90
66568;DHT22;53422;49.296;6.900;2023-04-28T03:40:14;12.70;99.90
66568;DHT22;53422;49.296;6.900;2023-04-28T03:42:40;12.70;99.90
66568;DHT22;53422;49.296;6.900;2023-04-28T03:45:06;12.70;99.90
66568;DHT22;53422;49.296;6.900;2023-04-28T03:47:32;12.60;99.90
66568;DHT22;53422;49.296;6.900;2023-04-28T03:49:58;12.70;99.90
66568;DHT22;53422;49.296;6.900;2023-04-28T03:52:24;12.60;99.90
66568;DHT22;53422;49.296;6.900;2023-04-28T03:54:50;12.60;99.90
66568;DHT22;53422;49.296;6.900;2023-04-28T03:57:16;12.70;99.90
66568;DHT22;53422;49.296;6.900;2023-04-28T03:59:41;12.70;99.90
66568;DHT22;53422;49.296;6.900;2023-04-28T04:02:07;12.70;99.90
66568;DHT22;53422;49.296;6.900;2023-04-28T04:04:33;12.70;99.90
66568;DHT22;53422;49.296;6.900;2023-04-28T04:06:59;12.60;99.90
66568;DHT22;53422;49.296;6.900;2023-04-28T04:09:25;12.60;99.90
66568;DHT22;53422;49.296;6.900;2023-04-28T04:11:50;12.60;99.90
66568;DHT22;53422;49.296;6.900;2023-04-28T04:14:16;12.60;99.90
66568;DHT22;53422;49.296;6.900;2023-04-28T04:16:42;12.60;99.90
66568;DHT22;53422;49.296;6.900;2023-04-28T04:19:07;12.60;99.90
66568;DHT22;53422;49.296;6.900;2023-04-28T04:21:33;12.60;99.90
66568;DHT22;53422;49.296;6.900;2023-04-28T04:23:59;12.60;99.90
66568;DHT22;53422;49.296;6.900;2023-04-28T04:26:24;12.70;99.90
66568;DHT22;53422;49.296;6.900;2023-04-28T04:28:50;12.70;99.90
66568;DHT22;53422;49.296;6.900;2023-04-28T04:31:16;12.80;99.90
66568;DHT22;53422;49.296;6.900;2023-04-28T04:33:44;12.80;99.90
66568;DHT22;53422;49.296;6.900;2023-04-28T04:36:09;12.80;99.90
66568;DHT22;53422;49.296;6.900;2023-04-28T04:38:35;12.80;99.90
66568;DHT22;53422;49.296;6.900;2023-04-28T04:41:01;12.80;99.90
66568;DHT22;53422;49.296;6.900;2023-04-28T04:43:27;12.80;99.90
66568;DHT22;53422;49.296;6.900;2023-04-28T04:45:53;12.80;99.90
66568;DHT22;53422;49.296;6.900;2023-04-28T04:48:19;12.80;99.90
66568;DHT22;53422;49.296;6.900;2023-04-28T04:50:45;12.70;99.90
66568;DHT22;53422;49.296;6.900;2023-04-28T04:53:10;12.70;99.90
66568;DHT22;53422;49.296;6.900;2023-04-28T04:55:36;12.70;99.90
66568;DHT22;53422;49.296;6.900;2023-04-28T04:58:02;12.70;99.90
66568;DHT22;53422;49.296;6.900;2023-04-28T05:00:27;12.70;99.90
66568;DHT22;53422;49.296;6.900;2023-04-28T05:02:53;12.70;99.90
66568;DHT22;53422;49.296;6.900;2023-04-28T05:05:19;12.70;99.90
66568;DHT22;53422;49.296;6.900;2023-04-28T05:07:45;12.70;99.90
66568;DHT22;53422;49.296;6.900;2023-04-28T05:10:11;12.80;99.90
66568;DHT22;53422;49.296;6.900;2023-04-28T05:12:37;12.70;99.90
66568;DHT22;53422;49.296;6.900;2023-04-28T05:15:05;12.70;99.90
66568;DHT22;53422;49.296;6.900;2023-04-28T05:17:31;12.70;99.90
66568;DHT22;53422;49.296;6.900;2023-04-28T05:19:57;12.70;99.90
66568;DHT22;53422;49.296;6.900;2023-04-28T05:22:22;12.70;99.90
66568;DHT22;53422;49.296;6.900;2023-04-28T05:24:48;12.70;99.90
66568;DHT22;53422;49.296;6.900;2023-04-28T05:27:14;12.70;99.90
66568;DHT22;53422;49.296;6.900;2023-04-28T05:29:39;12.70;99.90
66568;DHT22;53422;49.296;6.900;2023-04-28T05:32:05;12.70;99.90
66568;DHT22;53422;49.296;6.900;2023-04-28T05:34:31;12.70;99.90
66568;DHT22;53422;49.296;6.900;2023-04-28T05:36:57;12.70;99.90
66568;DHT22;53422;49.296;6.900;2023-04-28T05:39:22;12.70;99.90
66568;DHT22;53422;49.296;6.900;2023-04-28T05:41:48;12.70;99.90
66568;DHT22;53422;49.296;6.900;2023-04-28T05:44:13;12.70;99.90
66568;DHT22;53422;49.296;6.900;2023-04-28T05:46:39;12.70;99.90
66568;DHT22;53422;49.296;6.900;2023-04-28T05:49:05;12.70;99.90
66568;DHT22;53422;49.296;6.900;2023-04-28T05:51:30;12.80;99.90
66568;DHT22;53422;49.296;6.900;2023-04-28T05:53:56;12.80;99.90
66568;DHT22;53422;49.296;6.900;2023-04-28T05:56:22;12.80;99.90
66568;DHT22;53422;49.296;6.900;2023-04-28T05:58:48;12.80;99.90
66568;DHT22;53422;49.296;6.900;2023-04-28T06:01:15;12.80;99.90
66568;DHT22;53422;49.296;6.900;2023-04-28T06:03:41;12.90;99.90
66568;DHT22;53422;49.296;6.900;2023-04-28T06:06:07;12.90;99.90
66568;DHT22;53422;49.296;6.900;2023-04-28T06:08:33;12.90;99.90
66568;DHT22;53422;49.296;6.900;2023-04-28T06:10:59;12.90;99.90
66568;DHT22;53422;49.296;6.900;2023-04-28T06:13:25;12.90;99.90
66568;DHT22;53422;49.296;6.900;2023-04-28T06:15:50;12.90;99.90
66568;DHT22;53422;49.296;6.900;2023-04-28T06:18:16;12.80;99.90
66568;DHT22;53422;49.296;6.900;2023-04-28T06:20:42;12.80;99.90
66568;DHT22;53422;49.296;6.900;2023-04-28T06:23:07;12.80;99.90
66568;DHT22;53422;49.296;6.900;2023-04-28T06:25:34;12.80;99.90
66568;DHT22;53422;49.296;6.900;2023-04-28T06:28:01;12.80;99.90
66568;DHT22;53422;49.296;6.900;2023-04-28T06:30:26;12.80;99.90
66568;DHT22;53422;49.296;6.900;2023-04-28T06:32:52;12.80;99.90
66568;DHT22;53422;49.296;6.900;2023-04-28T06:35:18;12.90;99.90
66568;DHT22;53422;49.296;6.900;2023-04-28T06:37:43;12.90;99.90
66568;DHT22;53422;49.296;6.900;2023-04-28T06:40:09;13.00;99.90
66568;DHT22;53422;49.296;6.900;2023-04-28T06:42:35;13.00;99.90
66568;DHT22;53422;49.296;6.900;2023-04-28T06:45:02;13.00;99.90
66568;DHT22;53422;49.296;6.900;2023-04-28T06:47:27;13.00;99.90
66568;DHT22;53422;49.296;6.900;2023-04-28T06:49:53;13.00;99.90
66568;DHT22;53422;49.296;6.900;2023-04-28T06:52:19;13.00;99.90
66568;DHT22;53422;49.296;6.900;2023-04-28T06:54:46;13.00;99.90
66568;DHT22;53422;49.296;6.900;2023-04-28T06:57:12;13.00;99.90
66568;DHT22;53422;49.296;6.900;2023-04-28T06:59:38;13.10;99.90
66568;DHT22;53422;49.296;6.900;2023-04-28T07:02:04;13.10;99.90
66568;DHT22;53422;49.296;6.900;2023-04-28T07:04:29;13.20;99.90
66568;DHT22;53422;49.296;6.900;2023-04-28T07:06:55;13.20;99.90
66568;DHT22;53422;49.296;6.900;2023-04-28T07:09:21;13.20;99.90
66568;DHT22;53422;49.296;6.900;2023-04-28T07:11:47;13.30;99.90
66568;DHT22;53422;49.296;6.900;2023-04-28T07:14:12;13.30;99.90
66568;DHT22;53422;49.296;6.900;2023-04-28T07:16:38;13.40;99.90
66568;DHT22;53422;49.296;6.900;2023-04-28T07:19:04;13.30;99.90
66568;DHT22;53422;49.296;6.900;2023-04-28T07:21:30;13.40;99.90
66568;DHT22;53422;49.296;6.900;2023-04-28T07:23:55;13.30;99.90
66568;DHT22;53422;49.296;6.900;2023-04-28T07:26:24;13.30;99.90
66568;DHT22;53422;49.296;6.900;2023-04-28T07:28:50;13.50;99.90
66568;DHT22;53422;49.296;6.900;2023-04-28T07:31:16;13.60;99.90
66568;DHT22;53422;49.296;6.900;2023-04-28T07:33:42;13.60;99.90
66568;DHT22;53422;49.296;6.900;2023-04-28T07:36:07;13.60;99.90
66568;DHT22;53422;49.296;6.900;2023-04-28T07:38:34;13.60;99.90
66568;DHT22;53422;49.296;6.900;2023-04-28T07:41:00;13.60;99.90
66568;DHT22;53422;49.296;6.900;2023-04-28T07:43:26;13.60;99.90
66568;DHT22;53422;49.296;6.900;2023-04-28T07:45:51;13.70;99.90
66568;DHT22;53422;49.296;6.900;2023-04-28T07:48:17;13.80;99.90
66568;DHT22;53422;49.296;6.900;2023-04-28T07:50:43;13.80;99.90
66568;DHT22;53422;49.296;6.900;2023-04-28T07:53:09;13.80;99.90
66568;DHT22;53422;49.296;6.900;2023-04-28T07:55:34;13.80;99.90
66568;DHT22;53422;49.296;6.900;2023-04-28T07:58:01;13.80;99.90
66568;DHT22;53422;49.296;6.900;2023-04-28T08:00:26;13.80;99.90
66568;DHT22;53422;49.296;6.900;2023-04-28T08:02:52;13.90;99.90
66568;DHT22;53422;49.296;6.900;2023-04-28T08:05:18;13.90;99.90
66568;DHT22;53422;49.296;6.900;2023-04-28T08:07:43;13.90;99.90
66568;DHT22;53422;49.296;6.900;2023-04-28T08:10:10;14.00;99.90
66568;DHT22;53422;49.296;6.900;2023-04-28T08:12:37;14.00;99.90
66568;DHT22;53422;49.296;6.900;2023-04-28T08:15:03;14.10;99.90
66568;DHT22;53422;49.296;6.900;2023-04-28T08:17:28;14.00;99.90
66568;DHT22;53422;49.296;6.900;2023-04-28T08:19:54;14.00;99.90
66568;DHT22;53422;49.296;6.900;2023-04-28T08:22:20;14.10;99.90
66568;DHT22;53422;49.296;6.900;2023-04-28T08:24:46;14.20;99.90
66568;DHT22;53422;49.296;6.900;2023-04-28T08:27:11;14.30;99.90
66568;DHT22;53422;49.296;6.900;2023-04-28T08:29:37;14.20;99.90
66568;DHT22;53422;49.296;6.900;2023-04-28T08:32:04;14.30;99.90
66568;DHT22;53422;49.296;6.900;2023-04-28T08:34:31;14.20;99.90
66568;DHT22;53422;49.296;6.900;2023-04-28T08:36:57;14.30;99.90
66568;DHT22;53422;49.296;6.900;2023-04-28T08:39:23;14.30;99.90
66568;DHT22;53422;49.296;6.900;2023-04-28T08:41:51;14.40;99.90
66568;DHT22;53422;49.296;6.900;2023-04-28T08:44:17;14.40;99.90
66568;DHT22;53422;49.296;6.900;2023-04-28T08:46:44;14.40;99.90
66568;DHT22;53422;49.296;6.900;2023-04-28T08:49:33;14.50;99.90
66568;DHT22;53422;49.296;6.900;2023-04-28T08:52:00;14.50;99.90
66568;DHT22;53422;49.296;6.900;2023-04-28T08:54:30;14.50;99.90
66568;DHT22;53422;49.296;6.900;2023-04-28T08:56:56;14.50;99.90
66568;DHT22;53422;49.296;6.900;2023-04-28T08:59:22;14.50;99.90
66568;DHT22;53422;49.296;6.900;2023-04-28T09:01:48;14.50;99.90
66568;DHT22;53422;49.296;6.900;2023-04-28T09:04:18;14.40;99.90
66568;DHT22;53422;49.296;6.900;2023-04-28T09:06:44;14.50;99.90
66568;DHT22;53422;49.296;6.900;2023-04-28T09:09:40;14.60;99.90
66568;DHT22;53422;49.296;6.900;2023-04-28T09:12:06;14.60;99.90
66568;DHT22;53422;49.296;6.900;2023-04-28T09:14:33;14.50;99.90
66568;DHT22;53422;49.296;6.900;2023-04-28T09:17:00;14.60;99.90
66568;DHT22;53422;49.296;6.900;2023-04-28T09:19:33;14.60;99.90
66568;DHT22;53422;49.296;6.900;2023-04-28T09:22:00;14.60;99.90
66568;DHT22;53422;49.296;6.900;2023-04-28T09:24:31;14.70;99.90
66568;DHT22;53422;49.296;6.900;2023-04-28T09:27:04;14.70;99.90
66568;DHT22;53422;49.296;6.900;2023-04-28T09:29:32;14.70;99.90
66568;DHT22;53422;49.296;6.900;2023-04-28T09:32:17;14.70;99.90
66568;DHT22;53422;49.296;6.900;2023-04-28T09:37:23;14.80;99.90
66568;DHT22;53422;49.296;6.900;2023-04-28T09:39:51;14.80;99.90
66568;DHT22;53422;49.296;6.900;2023-04-28T09:42:40;14.90;99.90
66568;DHT22;53422;49.296;6.900;2023-04-28T09:45:07;15.00;99.90
66568;DHT22;53422;49.296;6.900;2023-04-28T09:47:41;15.00;99.90
66568;DHT22;53422;49.296;6.900;2023-04-28T09:50:08;15.10;99.90
66568;DHT22;53422;49.296;6.900;2023-04-28T09:52:36;15.00;99.90
66568;DHT22;53422;49.296;6.900;2023-04-28T09:55:06;15.00;99.90
66568;DHT22;53422;49.296;6.900;2023-04-28T09:57:35;15.00;99.90
66568;DHT22;53422;49.296;6.900;2023-04-28T10:00:02;15.10;99.90
66568;DHT22;53422;49.296;6.900;2023-04-28T10:02:32;15.00;99.90
66568;DHT22;53422;49.296;6.900;2023-04-28T10:04:58;15.00;99.90
66568;DHT22;53422;49.296;6.900;2023-04-28T10:07:25;15.10;99.90
66568;DHT22;53422;49.296;6.900;2023-04-28T10:09:51;15.20;99.90
66568;DHT22;53422;49.296;6.900;2023-04-28T10:12:19;15.20;99.90
66568;DHT22;53422;49.296;6.900;2023-04-28T10:14:46;15.10;99.90
66568;DHT22;53422;49.296;6.900;2023-04-28T10:17:14;15.20;99.90
66568;DHT22;53422;49.296;6.900;2023-04-28T10:19:44;15.20;99.90
66568;DHT22;53422;49.296;6.900;2023-04-28T10:25:24;15.20;99.90
66568;DHT22;53422;49.296;6.900;2023-04-28T10:27:51;15.20;99.90
66568;DHT22;53422;49.296;6.900;2023-04-28T10:30:24;15.30;99.90
66568;DHT22;53422;49.296;6.900;2023-04-28T10:35:45;15.30;99.90
66568;DHT22;53422;49.296;6.900;2023-04-28T10:38:16;15.20;99.90
66568;DHT22;53422;49.296;6.900;2023-04-28T10:40:50;15.20;99.90
66568;DHT22;53422;49.296;6.900;2023-04-28T10:58:38;15.20;99.90
66568;DHT22;53422;49.296;6.900;2023-04-28T11:01:31;15.30;99.90
66568;DHT22;53422;49.296;6.900;2023-04-28T11:04:07;15.30;99.90
66568;DHT22;53422;49.296;6.900;2023-04-28T11:06:41;15.50;99.90
66568;DHT22;53422;49.296;6.900;2023-04-28T11:14:34;15.50;99.90
66568;DHT22;53422;49.296;6.900;2023-04-28T11:17:04;15.50;99.90
66568;DHT22;53422;49.296;6.900;2023-04-28T11:19:33;15.50;99.90
66568;DHT22;53422;49.296;6.900;2023-04-28T11:22:01;15.50;99.90
66568;DHT22;53422;49.296;6.900;2023-04-28T11:24:28;15.60;99.90
66568;DHT22;53422;49.296;6.900;2023-04-28T11:26:54;15.70;99.90
66568;DHT22;53422;49.296;6.900;2023-04-28T11:29:37;15.70;99.90
66568;DHT22;53422;49.296;6.900;2023-04-28T11:32:04;15.80;99.90
66568;DHT22;53422;49.296;6.900;2023-04-28T11:34:31;15.70;99.90
66568;DHT22;53422;49.296;6.900;2023-04-28T11:36:57;15.80;99.90
66568;DHT22;53422;49.296;6.900;2023-04-28T11:39:30;16.00;99.90
66568;DHT22;53422;49.296;6.900;2023-04-28T11:42:00;16.10;99.90
66568;DHT22;53422;49.296;6.900;2023-04-28T11:44:28;16.10;99.90
66568;DHT22;53422;49.296;6.900;2023-04-28T11:46:58;16.20;99.90
66568;DHT22;53422;49.296;6.900;2023-04-28T11:49:31;16.10;99.90
66568;DHT22;53422;49.296;6.900;2023-04-28T11:52:04;16.30;99.90
66568;DHT22;53422;49.296;6.900;2023-04-28T11:54:30;16.40;99.90
66568;DHT22;53422;49.296;6.900;2023-04-28T11:56:56;16.50;99.90
66568;DHT22;53422;49.296;6.900;2023-04-28T11:59:30;16.50;99.90
66568;DHT22;53422;49.296;6.900;2023-04-28T12:02:06;16.60;99.90
66568;DHT22;53422;49.296;6.900;2023-04-28T12:04:35;16.70;99.90
66568;DHT22;53422;49.296;6.900;2023-04-28T12:07:09;16.80;99.90
66568;DHT22;53422;49.296;6.900;2023-04-28T12:09:35;16.90;99.90
66568;DHT22;53422;49.296;6.900;2023-04-28T12:12:03;16.80;99.90
66568;DHT22;53422;49.296;6.900;2023-04-28T12:14:30;16.90;99.90
66568;DHT22;53422;49.296;6.900;2023-04-28T12:17:00;17.00;99.90
66568;DHT22;53422;49.296;6.900;2023-04-28T12:19:26;16.90;99.90
66568;DHT22;53422;49.296;6.900;2023-04-28T12:22:04;17.00;99.90
66568;DHT22;53422;49.296;6.900;2023-04-28T12:24:30;17.10;99.90
66568;DHT22;53422;49.296;6.900;2023-04-28T12:27:19;17.10;99.90
66568;DHT22;53422;49.296;6.900;2023-04-28T12:29:49;17.00;99.90
66568;DHT22;53422;49.296;6.900;2023-04-28T12:32:16;17.10;99.90
66568;DHT22;53422;49.296;6.900;2023-04-28T12:34:44;17.00;99.90
66568;DHT22;53422;49.296;6.900;2023-04-28T12:37:10;17.00;99.90
66568;DHT22;53422;49.296;6.900;2023-04-28T12:39:39;16.90;99.90
66568;DHT22;53422;49.296;6.900;2023-04-28T12:42:05;16.90;99.90
66568;DHT22;53422;49.296;6.900;2023-04-28T12:44:35;16.90;99.90
66568;DHT22;53422;49.296;6.900;2023-04-28T12:47:06;16.80;99.90
66568;DHT22;53422;49.296;6.900;2023-04-28T12:49:33;17.00;99.90
66568;DHT22;53422;49.296;6.900;2023-04-28T12:51:59;17.10;99.90
66568;DHT22;53422;49.296;6.900;2023-04-28T12:54:25;17.20;99.90
66568;DHT22;53422;49.296;6.900;2023-04-28T12:56:51;17.10;99.90
66568;DHT22;53422;49.296;6.900;2023-04-28T12:59:19;17.10;99.90
66568;DHT22;53422;49.296;6.900;2023-04-28T13:01:45;17.00;99.90
66568;DHT22;53422;49.296;6.900;2023-04-28T13:04:11;17.00;99.90
66568;DHT22;53422;49.296;6.900;2023-04-28T13:06:38;17.00;99.90
66568;DHT22;53422;49.296;6.900;2023-04-28T13:09:05;17.00;99.90
66568;DHT22;53422;49.296;6.900;2023-04-28T13:11:30;16.90;99.90
66568;DHT22;53422;49.296;6.900;2023-04-28T13:13:56;17.10;99.90
66568;DHT22;53422;49.296;6.900;2023-04-28T13:16:22;17.10;99.90
66568;DHT22;53422;49.296;6.900;2023-04-28T13:18:54;17.20;99.90
66568;DHT22;53422;49.296;6.900;2023-04-28T13:21:21;17.20;99.90
66568;DHT22;53422;49.296;6.900;2023-04-28T13:23:47;17.20;99.90
66568;DHT22;53422;49.296;6.900;2023-04-28T13:26:13;17.20;99.90
66568;DHT22;53422;49.296;6.900;2023-04-28T13:28:38;17.20;99.90
66568;DHT22;53422;49.296;6.900;2023-04-28T13:31:04;17.40;99.90
66568;DHT22;53422;49.296;6.900;2023-04-28T13:33:30;17.50;99.90
66568;DHT22;53422;49.296;6.900;2023-04-28T13:35:59;17.40;99.90
66568;DHT22;53422;49.296;6.900;2023-04-28T13:38:25;17.30;99.90
66568;DHT22;53422;49.296;6.900;2023-04-28T13:40:51;17.40;99.90
66568;DHT22;53422;49.296;6.900;2023-04-28T13:43:17;17.40;99.90
66568;DHT22;53422;49.296;6.900;2023-04-28T13:45:43;17.50;99.90
66568;DHT22;53422;49.296;6.900;2023-04-28T13:48:08;17.50;99.90
66568;DHT22;53422;49.296;6.900;2023-04-28T13:50:34;17.40;99.90
66568;DHT22;53422;49.296;6.900;2023-04-28T13:53:00;17.40;99.90
66568;DHT22;53422;49.296;6.900;2023-04-28T13:55:25;17.40;99.90
66568;DHT22;53422;49.296;6.900;2023-04-28T13:57:54;17.40;99.90
66568;DHT22;53422;49.296;6.900;2023-04-28T14:00:21;17.50;99.90
66568;DHT22;53422;49.296;6.900;2023-04-28T14:02:47;17.50;99.90
66568;DHT22;53422;49.296;6.900;2023-04-28T14:05:14;17.40;99.90
66568;DHT22;53422;49.296;6.900;2023-04-28T14:07:43;17.30;99.90
66568;DHT22;53422;49.296;6.900;2023-04-28T14:10:09;17.30;99.90
66568;DHT22;53422;49.296;6.900;2023-04-28T14:12:36;17.30;99.90
66568;DHT22;53422;49.296;6.900;2023-04-28T14:15:06;17.30;99.90
66568;DHT22;53422;49.296;6.900;2023-04-28T14:17:32;17.20;99.90
66568;DHT22;53422;49.296;6.900;2023-04-28T14:19:59;17.10;99.90
66568;DHT22;53422;49.296;6.900;2023-04-28T14:22:26;17.10;99.90
66568;DHT22;53422;49.296;6.900;2023-04-28T14:24:52;17.10;99.90
66568;DHT22;53422;49.296;6.900;2023-04-28T14:27:18;17.00;99.90
66568;DHT22;53422;49.296;6.900;2023-04-28T14:29:43;17.00;99.90
66568;DHT22;53422;49.296;6.900;2023-04-28T14:32:13;17.00;99.90
66568;DHT22;53422;49.296;6.900;2023-04-28T14:34:39;17.00;99.90
66568;DHT22;53422;49.296;6.900;2023-04-28T14:37:05;17.10;99.90
66568;DHT22;53422;49.296;6.900;2023-04-28T14:39:30;17.20;99.90
66568;DHT22;53422;49.296;6.900;2023-04-28T14:41:56;17.20;99.90
66568;DHT22;53422;49.296;6.900;2023-04-28T14:44:22;17.30;99.90
66568;DHT22;53422;49.296;6.900;2023-04-28T14:46:47;17.30;99.90
66568;DHT22;53422;49.296;6.900;2023-04-28T14:49:13;17.40;99.90
66568;DHT22;53422;49.296;6.900;2023-04-28T14:51:39;17.40;99.90
66568;DHT22;53422;49.296;6.900;2023-04-28T14:54:05;17.40;99.90
66568;DHT22;53422;49.296;6.900;2023-04-28T14:56:33;17.30;99.90
66568;DHT22;53422;49.296;6.900;2023-04-28T14:58:59;17.30;99.90
66568;DHT22;53422;49.296;6.900;2023-04-28T15:01:24;17.50;99.90
66568;DHT22;53422;49.296;6.900;2023-04-28T15:03:50;17.50;99.90
66568;DHT22;53422;49.296;6.900;2023-04-28T15:06:16;17.60;99.90
66568;DHT22;53422;49.296;6.900;2023-04-28T15:08:41;17.60;99.90
66568;DHT22;53422;49.296;6.900;2023-04-28T15:11:07;17.60;99.90
66568;DHT22;53422;49.296;6.900;2023-04-28T15:13:33;17.60;99.90
66568;DHT22;53422;49.296;6.900;2023-04-28T15:15:59;17.70;99.90
66568;DHT22;53422;49.296;6.900;2023-04-28T15:18:24;17.70;99.90
66568;DHT22;53422;49.296;6.900;2023-04-28T15:20:50;17.80;99.90
66568;DHT22;53422;49.296;6.900;2023-04-28T15:23:16;17.80;99.90
66568;DHT22;53422;49.296;6.900;2023-04-28T15:25:42;17.80;99.90
66568;DHT22;53422;49.296;6.900;2023-04-28T15:28:07;17.90;99.90
66568;DHT22;53422;49.296;6.900;2023-04-28T15:30:33;17.80;99.90
66568;DHT22;53422;49.296;6.900;2023-04-28T15:32:59;17.70;99.90
66568;DHT22;53422;49.296;6.900;2023-04-28T15:35:25;17.70;99.90
66568;DHT22;53422;49.296;6.900;2023-04-28T15:37:51;17.80;99.90
66568;DHT22;53422;49.296;6.900;2023-04-28T15:40:18;17.80;99.90
66568;DHT22;53422;49.296;6.900;2023-04-28T15:42:45;17.90;99.90
66568;DHT22;53422;49.296;6.900;2023-04-28T15:45:14;17.90;99.90
66568;DHT22;53422;49.296;6.900;2023-04-28T15:47:41;17.90;99.90
66568;DHT22;53422;49.296;6.900;2023-04-28T15:50:08;17.90;99.90
66568;DHT22;53422;49.296;6.900;2023-04-28T15:52:40;17.90;99.90
66568;DHT22;53422;49.296;6.900;2023-04-28T15:55:14;17.90;99.90
66568;DHT22;53422;49.296;6.900;2023-04-28T15:57:40;17.90;99.90